sensor_id;sensor_type;location;lat;lon;timestamp;temperature;humidity
40702;DHT22;26387;50.114;8.662;2023-04-03T04:02:43;9.10;76.40
40702;DHT22;26387;50.114;8.662;2023-04-03T04:19:43;8.10;77.70
40702;DHT22;26387;50.114;8.662;2023-04-03T04:22:09;7.90;77.90
40702;DHT22;26387;50.114;8.662;2023-04-03T04:24:34;7.80;77.30
40702;DHT22;26387;50.114;8.662;2023-04-03T04:27:00;7.80;77.30
40702;DHT22;26387;50.114;8.662;2023-04-03T04:29:25;7.70;77.50
40702;DHT22;26387;50.114;8.662;2023-04-03T04:31:51;7.70;77.50
40702;DHT22;26387;50.114;8.662;2023-04-03T04:34:16;7.60;78.00
40702;DHT22;26387;50.114;8.662;2023-04-03T04:36:42;7.50;78.70
40702;DHT22;26387;50.114;8.662;2023-04-03T04:39:07;7.60;78.30
40702;DHT22;26387;50.114;8.662;2023-04-03T04:41:33;7.60;77.80
40702;DHT22;26387;50.114;8.662;2023-04-03T04:43:59;7.60;77.60
40702;DHT22;26387;50.114;8.662;2023-04-03T04:46:25;7.50;77.90
40702;DHT22;26387;50.114;8.662;2023-04-03T04:48:50;7.50;77.80
40702;DHT22;26387;50.114;8.662;2023-04-03T04:51:16;7.50;77.70
40702;DHT22;26387;50.114;8.662;2023-04-03T04:53:41;7.50;78.10
40702;DHT22;26387;50.114;8.662;2023-04-03T04:56:07;7.40;77.80
40702;DHT22;26387;50.114;8.662;2023-04-03T04:58:33;7.40;78.20
40702;DHT22;26387;50.114;8.662;2023-04-03T05:00:59;7.40;78.00
40702;DHT22;26387;50.114;8.662;2023-04-03T05:03:25;7.40;78.60
40702;DHT22;26387;50.114;8.662;2023-04-03T05:05:51;7.30;78.50
40702;DHT22;26387;50.114;8.662;2023-04-03T05:08:16;7.30;78.80
40702;DHT22;26387;50.114;8.662;2023-04-03T05:10:41;7.40;78.60
40702;DHT22;26387;50.114;8.662;2023-04-03T05:13:07;7.40;78.20
40702;DHT22;26387;50.114;8.662;2023-04-03T05:15:33;7.40;78.80
40702;DHT22;26387;50.114;8.662;2023-04-03T05:17:58;7.40;78.50
40702;DHT22;26387;50.114;8.662;2023-04-03T05:20:24;7.40;78.40
40702;DHT22;26387;50.114;8.662;2023-04-03T05:22:50;7.30;78.60
40702;DHT22;26387;50.114;8.662;2023-04-03T05:25:16;7.30;78.60
40702;DHT22;26387;50.114;8.662;2023-04-03T05:27:41;7.30;78.90
40702;DHT22;26387;50.114;8.662;2023-04-03T05:30:07;7.20;78.70
40702;DHT22;26387;50.114;8.662;2023-04-03T05:32:32;7.20;78.90
40702;DHT22;26387;50.114;8.662;2023-04-03T05:34:58;7.20;79.10
40702;DHT22;26387;50.114;8.662;2023-04-03T05:37:24;7.10;79.10
40702;DHT22;26387;50.114;8.662;2023-04-03T05:39:49;7.10;79.50
40702;DHT22;26387;50.114;8.662;2023-04-03T05:42:15;7.00;79.90
40702;DHT22;26387;50.114;8.662;2023-04-03T05:44:41;7.10;80.20
40702;DHT22;26387;50.114;8.662;2023-04-03T05:47:06;7.20;80.10
40702;DHT22;26387;50.114;8.662;2023-04-03T05:49:32;7.30;79.80
40702;DHT22;26387;50.114;8.662;2023-04-03T05:51:57;7.30;79.60
40702;DHT22;26387;50.114;8.662;2023-04-03T05:54:24;7.40;79.60
40702;DHT22;26387;50.114;8.662;2023-04-03T05:56:50;7.40;79.10
40702;DHT22;26387;50.114;8.662;2023-04-03T05:59:16;7.40;79.20
40702;DHT22;26387;50.114;8.662;2023-04-03T06:01:42;7.40;81.00
40702;DHT22;26387;50.114;8.662;2023-04-03T06:04:07;7.40;81.20
40702;DHT22;26387;50.114;8.662;2023-04-03T06:06:47;7.30;80.60
40702;DHT22;26387;50.114;8.662;2023-04-03T06:09:13;7.30;79.70
40702;DHT22;26387;50.114;8.662;2023-04-03T06:11:39;7.30;80.50
40702;DHT22;26387;50.114;8.662;2023-04-03T06:14:05;7.10;80.20
40702;DHT22;26387;50.114;8.662;2023-04-03T06:16:31;7.20;80.40
40702;DHT22;26387;50.114;8.662;2023-04-03T06:18:57;7.10;80.30
40702;DHT22;26387;50.114;8.662;2023-04-03T06:21:23;7.10;80.30
40702;DHT22;26387;50.114;8.662;2023-04-03T06:23:48;7.20;80.30
40702;DHT22;26387;50.114;8.662;2023-04-03T06:26:13;7.20;80.40
40702;DHT22;26387;50.114;8.662;2023-04-03T06:28:39;7.10;80.20
40702;DHT22;26387;50.114;8.662;2023-04-03T06:31:05;7.10;80.80
40702;DHT22;26387;50.114;8.662;2023-04-03T06:33:30;7.20;80.50
40702;DHT22;26387;50.114;8.662;2023-04-03T06:35:58;7.20;80.90
40702;DHT22;26387;50.114;8.662;2023-04-03T06:38:24;7.20;80.60
40702;DHT22;26387;50.114;8.662;2023-04-03T06:40:50;7.20;80.00
40702;DHT22;26387;50.114;8.662;2023-04-03T06:43:16;7.10;80.00
40702;DHT22;26387;50.114;8.662;2023-04-03T06:45:42;7.10;80.00
40702;DHT22;26387;50.114;8.662;2023-04-03T06:48:07;7.10;80.20
40702;DHT22;26387;50.114;8.662;2023-04-03T06:50:33;7.10;80.20
40702;DHT22;26387;50.114;8.662;2023-04-03T06:52:58;7.10;80.30
40702;DHT22;26387;50.114;8.662;2023-04-03T06:55:24;7.10;80.00
40702;DHT22;26387;50.114;8.662;2023-04-03T06:57:49;7.10;80.20
40702;DHT22;26387;50.114;8.662;2023-04-03T07:00:15;7.10;80.40
40702;DHT22;26387;50.114;8.662;2023-04-03T07:02:41;7.10;80.50
40702;DHT22;26387;50.114;8.662;2023-04-03T07:05:07;7.10;79.50
40702;DHT22;26387;50.114;8.662;2023-04-03T07:07:32;7.10;79.50
40702;DHT22;26387;50.114;8.662;2023-04-03T07:09:59;7.20;79.70
40702;DHT22;26387;50.114;8.662;2023-04-03T07:12:25;7.30;79.20
40702;DHT22;26387;50.114;8.662;2023-04-03T07:14:50;7.20;79.30
40702;DHT22;26387;50.114;8.662;2023-04-03T07:17:16;7.40;78.90
40702;DHT22;26387;50.114;8.662;2023-04-03T07:19:41;7.50;78.40
40702;DHT22;26387;50.114;8.662;2023-04-03T07:22:07;7.50;78.60
40702;DHT22;26387;50.114;8.662;2023-04-03T07:24:33;7.60;78.40
40702;DHT22;26387;50.114;8.662;2023-04-03T07:26:58;7.60;78.40
40702;DHT22;26387;50.114;8.662;2023-04-03T07:29:24;7.70;77.80
40702;DHT22;26387;50.114;8.662;2023-04-03T07:31:49;7.90;77.70
40702;DHT22;26387;50.114;8.662;2023-04-03T07:34:15;8.10;78.10
40702;DHT22;26387;50.114;8.662;2023-04-03T07:36:40;8.10;77.00
40702;DHT22;26387;50.114;8.662;2023-04-03T07:39:06;8.10;76.60
40702;DHT22;26387;50.114;8.662;2023-04-03T07:41:33;8.10;77.00
40702;DHT22;26387;50.114;8.662;2023-04-03T07:43:58;8.10;77.00
40702;DHT22;26387;50.114;8.662;2023-04-03T07:46:24;8.20;77.30
40702;DHT22;26387;50.114;8.662;2023-04-03T07:48:49;8.30;76.30
40702;DHT22;26387;50.114;8.662;2023-04-03T07:51:15;8.40;76.10
40702;DHT22;26387;50.114;8.662;2023-04-03T07:53:41;8.50;75.30
40702;DHT22;26387;50.114;8.662;2023-04-03T07:56:07;8.50;73.60
40702;DHT22;26387;50.114;8.662;2023-04-03T07:58:32;8.40;74.00
40702;DHT22;26387;50.114;8.662;2023-04-03T08:00:58;8.50;72.20
40702;DHT22;26387;50.114;8.662;2023-04-03T08:03:24;8.60;72.40
40702;DHT22;26387;50.114;8.662;2023-04-03T08:05:49;8.60;72.10
40702;DHT22;26387;50.114;8.662;2023-04-03T08:08:16;8.60;71.90
40702;DHT22;26387;50.114;8.662;2023-04-03T08:10:42;8.70;71.10
40702;DHT22;26387;50.114;8.662;2023-04-03T08:13:08;8.60;70.40
40702;DHT22;26387;50.114;8.662;2023-04-03T08:15:34;8.60;70.20
40702;DHT22;26387;50.114;8.662;2023-04-03T08:18:00;8.60;69.80
40702;DHT22;26387;50.114;8.662;2023-04-03T08:20:26;8.60;70.30
40702;DHT22;26387;50.114;8.662;2023-04-03T08:22:52;8.70;70.40
40702;DHT22;26387;50.114;8.662;2023-04-03T15:24:27;32.60;27.60
40702;DHT22;26387;50.114;8.662;2023-04-03T15:26:53;30.50;23.50
40702;DHT22;26387;50.114;8.662;2023-04-03T15:41:28;29.40;24.10
40702;DHT22;26387;50.114;8.662;2023-04-03T15:43:53;20.30;29.50
40702;DHT22;26387;50.114;8.662;2023-04-03T16:13:10;18.80;30.80
40702;DHT22;26387;50.114;8.662;2023-04-03T16:15:35;14.00;36.50
40702;DHT22;26387;50.114;8.662;2023-04-03T16:18:01;13.60;35.80
40702;DHT22;26387;50.114;8.662;2023-04-03T17:16:26;13.40;36.30
40702;DHT22;26387;50.114;8.662;2023-04-03T17:18:52;11.50;41.00
40702;DHT22;26387;50.114;8.662;2023-04-03T17:21:18;11.30;40.50
40702;DHT22;26387;50.114;8.662;2023-04-03T17:23:44;11.20;40.40
40702;DHT22;26387;50.114;8.662;2023-04-03T17:26:10;11.10;40.50
40702;DHT22;26387;50.114;8.662;2023-04-03T17:28:36;11.00;41.30
40702;DHT22;26387;50.114;8.662;2023-04-03T17:31:01;10.90;41.00
40702;DHT22;26387;50.114;8.662;2023-04-03T17:33:27;10.90;40.80
40702;DHT22;26387;50.114;8.662;2023-04-03T17:35:55;10.80;41.40
40702;DHT22;26387;50.114;8.662;2023-04-03T17:38:21;10.80;41.00
40702;DHT22;26387;50.114;8.662;2023-04-03T17:40:46;10.70;41.20
40702;DHT22;26387;50.114;8.662;2023-04-03T17:43:12;10.50;41.40
40702;DHT22;26387;50.114;8.662;2023-04-03T17:45:37;10.50;41.70
40702;DHT22;26387;50.114;8.662;2023-04-03T17:48:03;10.40;42.80
40702;DHT22;26387;50.114;8.662;2023-04-03T17:50:28;10.30;42.80
40702;DHT22;26387;50.114;8.662;2023-04-03T17:52:54;10.20;42.80
40702;DHT22;26387;50.114;8.662;2023-04-03T17:55:19;10.20;42.80
40702;DHT22;26387;50.114;8.662;2023-04-03T17:57:45;10.20;43.10
40702;DHT22;26387;50.114;8.662;2023-04-03T18:00:11;10.10;43.00
40702;DHT22;26387;50.114;8.662;2023-04-03T18:02:36;10.10;43.50
40702;DHT22;26387;50.114;8.662;2023-04-03T18:05:02;10.10;44.00
40702;DHT22;26387;50.114;8.662;2023-04-03T18:19:37;10.00;44.50
40702;DHT22;26387;50.114;8.662;2023-04-03T18:22:04;9.70;45.20
40702;DHT22;26387;50.114;8.662;2023-04-03T18:24:31;9.60;44.90
40702;DHT22;26387;50.114;8.662;2023-04-03T18:39:06;9.60;44.80
40702;DHT22;26387;50.114;8.662;2023-04-03T19:10:43;9.40;45.20
40702;DHT22;26387;50.114;8.662;2023-04-03T19:15:34;8.80;46.50
40702;DHT22;26387;50.114;8.662;2023-04-03T19:18:00;8.80;46.60
40702;DHT22;26387;50.114;8.662;2023-04-03T19:20:25;8.70;46.60
40702;DHT22;26387;50.114;8.662;2023-04-03T19:22:51;8.70;46.90
40702;DHT22;26387;50.114;8.662;2023-04-03T19:25:16;8.70;46.60
40702;DHT22;26387;50.114;8.662;2023-04-03T19:27:42;8.70;46.70
40702;DHT22;26387;50.114;8.662;2023-04-03T19:30:08;8.70;46.50
40702;DHT22;26387;50.114;8.662;2023-04-03T19:32:35;8.70;46.60
40702;DHT22;26387;50.114;8.662;2023-04-03T19:35:01;8.70;46.60
40702;DHT22;26387;50.114;8.662;2023-04-03T19:37:27;8.60;46.80
40702;DHT22;26387;50.114;8.662;2023-04-03T19:39:52;8.60;46.90
40702;DHT22;26387;50.114;8.662;2023-04-03T19:42:18;8.60;47.10
40702;DHT22;26387;50.114;8.662;2023-04-03T19:44:44;8.60;47.40
40702;DHT22;26387;50.114;8.662;2023-04-03T19:47:10;8.50;47.50
40702;DHT22;26387;50.114;8.662;2023-04-03T19:49:36;8.40;47.60
40702;DHT22;26387;50.114;8.662;2023-04-03T19:52:02;8.50;47.60
40702;DHT22;26387;50.114;8.662;2023-04-03T19:54:28;8.40;47.30
40702;DHT22;26387;50.114;8.662;2023-04-03T19:56:53;8.30;47.10
40702;DHT22;26387;50.114;8.662;2023-04-03T19:59:18;8.30;47.70
40702;DHT22;26387;50.114;8.662;2023-04-03T20:01:44;8.30;47.60
40702;DHT22;26387;50.114;8.662;2023-04-03T20:04:13;8.30;47.60
40702;DHT22;26387;50.114;8.662;2023-04-03T20:06:38;8.20;47.60
40702;DHT22;26387;50.114;8.662;2023-04-03T20:09:04;8.20;47.70
40702;DHT22;26387;50.114;8.662;2023-04-03T20:11:29;8.20;47.80
40702;DHT22;26387;50.114;8.662;2023-04-03T20:13:55;8.10;48.00
40702;DHT22;26387;50.114;8.662;2023-04-03T20:16:21;8.20;48.60
40702;DHT22;26387;50.114;8.662;2023-04-03T20:18:49;8.10;48.40
40702;DHT22;26387;50.114;8.662;2023-04-03T20:21:15;8.10;48.30
40702;DHT22;26387;50.114;8.662;2023-04-03T20:23:42;8.10;48.70
40702;DHT22;26387;50.114;8.662;2023-04-03T20:26:08;8.10;48.40
40702;DHT22;26387;50.114;8.662;2023-04-03T20:28:33;8.00;48.50
40702;DHT22;26387;50.114;8.662;2023-04-03T20:30:59;8.10;48.70
40702;DHT22;26387;50.114;8.662;2023-04-03T20:33:26;8.10;48.90
40702;DHT22;26387;50.114;8.662;2023-04-03T20:35:52;8.00;49.40
40702;DHT22;26387;50.114;8.662;2023-04-03T20:38:19;8.00;49.10
40702;DHT22;26387;50.114;8.662;2023-04-03T20:40:44;8.00;49.10
40702;DHT22;26387;50.114;8.662;2023-04-03T20:43:10;8.10;49.60
40702;DHT22;26387;50.114;8.662;2023-04-03T20:45:36;8.00;48.90
40702;DHT22;26387;50.114;8.662;2023-04-03T20:48:01;8.00;49.30
40702;DHT22;26387;50.114;8.662;2023-04-03T20:50:30;8.00;49.40
40702;DHT22;26387;50.114;8.662;2023-04-03T20:52:56;7.90;49.60
40702;DHT22;26387;50.114;8.662;2023-04-03T20:55:22;7.90;49.50
40702;DHT22;26387;50.114;8.662;2023-04-03T20:57:48;7.90;49.50
40702;DHT22;26387;50.114;8.662;2023-04-03T21:00:14;7.80;49.80
40702;DHT22;26387;50.114;8.662;2023-04-03T21:02:41;7.80;49.60
40702;DHT22;26387;50.114;8.662;2023-04-03T21:05:07;7.70;49.60
40702;DHT22;26387;50.114;8.662;2023-04-03T21:20:40;7.50;50.30
40702;DHT22;26387;50.114;8.662;2023-04-03T21:23:05;7.40;50.60
40702;DHT22;26387;50.114;8.662;2023-04-03T21:25:31;7.40;50.50
40702;DHT22;26387;50.114;8.662;2023-04-03T21:27:57;7.30;50.30
40702;DHT22;26387;50.114;8.662;2023-04-03T21:30:23;7.30;50.50
40702;DHT22;26387;50.114;8.662;2023-04-03T21:32:49;7.30;50.50
40702;DHT22;26387;50.114;8.662;2023-04-03T21:35:14;7.20;50.60
40702;DHT22;26387;50.114;8.662;2023-04-03T21:37:39;7.30;50.80
40702;DHT22;26387;50.114;8.662;2023-04-03T21:40:05;7.30;50.80
40702;DHT22;26387;50.114;8.662;2023-04-03T21:42:30;7.20;50.40
40702;DHT22;26387;50.114;8.662;2023-04-03T21:44:56;7.20;50.60
40702;DHT22;26387;50.114;8.662;2023-04-03T21:59:35;7.20;50.40
40702;DHT22;26387;50.114;8.662;2023-04-03T22:02:02;7.10;51.40
40702;DHT22;26387;50.114;8.662;2023-04-03T22:04:27;7.10;51.10
40702;DHT22;26387;50.114;8.662;2023-04-03T22:06:54;7.00;51.30
40702;DHT22;26387;50.114;8.662;2023-04-03T22:09:21;7.00;51.40
40702;DHT22;26387;50.114;8.662;2023-04-03T22:11:47;7.10;51.40
40702;DHT22;26387;50.114;8.662;2023-04-03T22:14:13;7.10;51.30
40702;DHT22;26387;50.114;8.662;2023-04-03T22:16:38;7.10;51.10
40702;DHT22;26387;50.114;8.662;2023-04-03T22:19:04;7.10;51.30
40702;DHT22;26387;50.114;8.662;2023-04-03T22:21:30;7.10;51.20
40702;DHT22;26387;50.114;8.662;2023-04-03T22:23:56;7.10;51.40
40702;DHT22;26387;50.114;8.662;2023-04-03T22:26:21;7.10;51.80
40702;DHT22;26387;50.114;8.662;2023-04-03T22:28:47;7.00;51.80
40702;DHT22;26387;50.114;8.662;2023-04-03T22:31:13;6.90;51.90
40702;DHT22;26387;50.114;8.662;2023-04-03T22:33:39;6.90;52.10
40702;DHT22;26387;50.114;8.662;2023-04-03T22:36:05;6.90;52.10
40702;DHT22;26387;50.114;8.662;2023-04-03T22:38:31;6.80;52.20
40702;DHT22;26387;50.114;8.662;2023-04-03T22:41:00;6.80;52.30
40702;DHT22;26387;50.114;8.662;2023-04-03T22:43:26;6.80;52.30
40702;DHT22;26387;50.114;8.662;2023-04-03T22:45:52;6.70;52.60
40702;DHT22;26387;50.114;8.662;2023-04-03T22:48:18;6.70;52.80
40702;DHT22;26387;50.114;8.662;2023-04-03T22:50:44;6.70;52.80
40702;DHT22;26387;50.114;8.662;2023-04-03T22:53:09;6.60;53.50
40702;DHT22;26387;50.114;8.662;2023-04-03T22:55:35;6.60;53.00
40702;DHT22;26387;50.114;8.662;2023-04-03T22:58:02;6.70;52.90
40702;DHT22;26387;50.114;8.662;2023-04-03T23:00:27;6.70;52.90
40702;DHT22;26387;50.114;8.662;2023-04-03T23:02:53;6.70;52.70
40702;DHT22;26387;50.114;8.662;2023-04-03T23:05:19;6.70;53.20
40702;DHT22;26387;50.114;8.662;2023-04-03T23:07:45;6.70;53.20
40702;DHT22;26387;50.114;8.662;2023-04-03T23:10:10;6.70;53.30
40702;DHT22;26387;50.114;8.662;2023-04-03T23:12:36;6.70;53.00
40702;DHT22;26387;50.114;8.662;2023-04-03T23:15:06;6.70;53.10
40702;DHT22;26387;50.114;8.662;2023-04-03T23:17:31;6.70;52.90
40702;DHT22;26387;50.114;8.662;2023-04-03T23:19:58;6.70;52.90
40702;DHT22;26387;50.114;8.662;2023-04-03T23:22:23;6.70;52.90
40702;DHT22;26387;50.114;8.662;2023-04-03T23:24:49;6.70;52.90
40702;DHT22;26387;50.114;8.662;2023-04-03T23:27:15;6.70;52.90
40702;DHT22;26387;50.114;8.662;2023-04-03T23:29:40;6.60;52.90
40702;DHT22;26387;50.114;8.662;2023-04-03T23:32:08;6.60;53.10
40702;DHT22;26387;50.114;8.662;2023-04-03T23:34:34;6.60;53.10
40702;DHT22;26387;50.114;8.662;2023-04-03T23:36:59;6.50;53.00
40702;DHT22;26387;50.114;8.662;2023-04-03T23:39:25;6.50;53.20
40702;DHT22;26387;50.114;8.662;2023-04-03T23:41:50;6.50;53.30
40702;DHT22;26387;50.114;8.662;2023-04-03T23:44:16;6.50;52.80
40702;DHT22;26387;50.114;8.662;2023-04-03T23:46:42;6.50;53.00
40702;DHT22;26387;50.114;8.662;2023-04-03T23:49:07;6.50;53.00
40702;DHT22;26387;50.114;8.662;2023-04-03T23:51:33;6.40;53.00
40702;DHT22;26387;50.114;8.662;2023-04-03T23:53:58;6.40;52.90
40702;DHT22;26387;50.114;8.662;2023-04-03T23:56:23;6.50;53.00
40702;DHT22;26387;50.114;8.662;2023-04-03T23:58:49;6.40;53.00
